x

Buoy M01 - Jordan Basin (44037) Wave Buoy

3:04pm - Sun 22nd Oct 2017 All times are EDT. -4 hours from GMT.

  • Sig Wave height 3.0ft
  • Peak Period 4s
  • Wind
    16mph, 20mph gusts
  • Sea Temp 56°f
  • Air Temp 56°f
  • Sea Pressure 1029.4mb
  • Buoy M01 - Jordan Basin
  • Buoy M01 - Jordan Basin

More Historic Weather Station data

Upgrade to MSW Pro to gain access to the past 30 days of data for over 8000 Wavebouys and Weather Stations around the globe.

Join

Comparision Forecast

View Surf forecast
   
Sun 10/22 3:04pm 3ft 4s 16 20 mph 1029.4mb 56f 56f
2:04pm 2.5ft 5s 16 18 mph 1029.3mb 56f 56f
1:04pm 2.5ft 4s 16 18 mph 1029.4mb 56f 56f
12:04pm 2.5ft 3s 16 18 mph 1029.5mb 56f 56f
11:04am 2ft 3s 16 18 mph 1029.7mb 56f 56f
10:04am 2ft 5s 13 16 mph 1029.8mb 56f 57f
9:04am 1.6ft 5s 13 13 mph 1029.4mb 56f 57f
8:04am 1.6ft 8s 9 11 mph 1029mb 56f 57f
7:04am 2ft 8s 4 7 mph 1028.1mb 56f 56f
6:04am 2ft 8s 4 7 mph 1027.6mb 56f 56f
5:04am 2ft 8s 4 4 mph 1027.1mb 56f 56f
4:04am 2ft 8s 2 2 mph 1026.6mb 56f 56f
3:04am 1.6ft 8s 2 4 mph 1026.1mb 56f 57f
2:04am 1.3ft 3s 2 4 mph 1026mb 56f 57f
1:04am 1.3ft 3s 7 7 mph 1025.8mb 56f 57f
12:04am 1.3ft 3s 9 11 mph 1025.7mb 56f 58f
Sat 10/21 11:04pm 1.6ft 8s 9 11 mph 1025.6mb 56f 58f
10:04pm 2ft 11s 9 11 mph 1025.6mb 56f 58f
9:04pm 1.6ft 8s 9 11 mph 1025.4mb 57f 58f
8:04pm 1.6ft 8s 9 11 mph 1025.3mb 57f 58f
7:04pm 1.6ft 8s 7 9 mph 1025.2mb 57f 57f
6:04pm 1.6ft 8s 9 11 mph 1024.8mb 57f 57f
5:04pm 1.6ft 8s 7 7 mph 1024.4mb 57f 58f
4:04pm 1.6ft 8s 4 4 mph 1024.2mb 57f 58f
3:04pm 1.6ft 8s 4 7 mph 1023.8mb 58f 59f
2:04pm 1.6ft 8s 7 7 mph 1023.7mb 57f 59f
1:04pm 2ft 8s 2 7 mph 1023.7mb 57f 62f
12:04pm 1.6ft 4s 2 7 mph 1023.5mb 56f 60f
11:04am 2ft 5s 4 4 mph 1023.7mb 56f 58f
10:04am 1.6ft 8s 7 9 mph 1023.8mb 56f 57f
9:04am 2ft 6s 7 9 mph 1023.5mb 56f 57f
8:04am 1.6ft 4s 7 9 mph 1023mb 56f 57f
7:04am 2.5ft 11s 9 11 mph 1022.2mb 56f 56f
6:04am 2ft 8s 9 11 mph 1021.5mb 56f 57f
5:04am 2ft 5s 7 9 mph 1020.8mb 56f 56f
4:04am 2.5ft 8s 7 9 mph 1020mb 56f 56f
3:04am 3ft 8s 9 11 mph 1019.4mb 56f 57f
2:04am 3ft 6s 9 11 mph 1019.2mb 56f 57f
1:04am 2.5ft 5s 11 13 mph 1018.3mb 56f 57f
12:04am 2.5ft 5s 11 16 mph 1018mb 56f 58f
Fri 10/20 11:04pm 2.5ft 5s 16 18 mph 1017mb 56f 58f
10:04pm  -   -  16 18 mph 1016.1mb - 59f
9:04pm 3.5ft 5s 11 13 mph 1015.3mb 56f 58f
7:04pm 4ft 5s 13 16 mph 1013.8mb 56f 58f
6:04pm 3.5ft 5s 16 18 mph 1013.2mb 56f 58f
5:04pm 4ft 5s 13 18 mph 1012.6mb 56f 58f
4:04pm 3.5ft 6s 16 18 mph 1011.9mb 56f 58f
3:04pm 3.5ft 6s 16 18 mph 1011.6mb 56f 58f
2:04pm 4.5ft 6s 9 11 mph 1011.8mb 56f 58f
1:04pm 4ft 6s 11 13 mph 1012.1mb 56f 58f
9:04am 5ft 6s 11 11 mph 1013.3mb 56f 57f
8:04am 5ft 6s 11 13 mph 1013.1mb 56f 57f
7:04am 6.5ft 8s 11 13 mph 1012.6mb 56f 57f
6:04am 6ft 8s 13 16 mph 1012.3mb 56f 57f
5:04am 7ft 8s 16 18 mph 1011.8mb 56f 58f
4:04am 7ft 8s 16 20 mph 1011.5mb 56f 58f
3:04am 8.5ft 8s 20 25 mph 1011.6mb 56f 58f
2:04am 8ft 8s 20 25 mph 1011.7mb 56f 58f
1:04am 7.5ft 6s 25 27 mph 1012mb 56f 58f
12:04am 8.5ft 6s 27 31 mph 1012.3mb 56f 58f
Thu 10/19 11:04pm 7ft 6s 25 29 mph 1012.8mb 56f 58f
10:04pm 9ft 6s 25 29 mph 1013.5mb 56f 58f
9:04pm 7ft 6s 25 31 mph 1013.2mb 56f 58f
8:04pm 6ft 5s 27 31 mph 1013.4mb 56f 58f
7:04pm 5ft 5s 25 29 mph 1014.9mb 56f 58f
6:04pm 5ft 5s 22 27 mph 1015.8mb 56f 59f
5:04pm 4.5ft 5s 22 27 mph 1016.1mb 56f 58f
4:04pm 4.5ft 5s 20 25 mph 1017.3mb 56f 59f
3:04pm 3.5ft 5s 18 20 mph 1018.3mb 56f 58f
2:04pm 3.5ft 5s 18 22 mph 1019.2mb 56f 58f
1:04pm 2.5ft 4s 16 20 mph 1020mb 56f 58f
12:04pm 2.5ft 4s 18 20 mph 1021mb 56f 58f
11:04am 3ft 4s 18 22 mph 1021.8mb 56f 58f
10:04am 2.5ft 3s 18 18 mph 1022.1mb 56f 58f
9:04am 2ft 3s 18 22 mph 1022.8mb 56f 57f
8:04am 2ft 4s 16 18 mph 1023.1mb 56f 57f
7:04am 2.5ft 11s 13 16 mph 1023mb 56f 57f
6:04am 1.6ft 5s 9 11 mph 1023.4mb 56f 57f
5:04am 2ft 5s 9 11 mph 1023.4mb 56f 57f
4:04am 3ft 11s 11 13 mph 1023.4mb 56f 57f
3:04am 2.5ft 11s 9 11 mph 1023.4mb 56f 57f
2:04am 3ft 11s 7 9 mph 1023.5mb 56f 57f
1:04am 2.5ft 5s 11 11 mph 1023.7mb 56f 57f
12:04am 2ft 5s 9 11 mph 1023.9mb 56f 57f
Wed 10/18 11:04pm 3ft 5s 13 13 mph 1023.8mb 56f 57f
10:04pm 3.5ft 5s 9 11 mph 1023.5mb 56f 57f